logo
Search for airport 
image banner adimage banner adimage banner ad
image banner ad

OPSD - Skardu Int'l

Located in Skardu, Pakistan

ICAO - OPSD, IATA - KDU

Data provided by Airmate  

General information

Coordinates: N35°20'22" E75°32'29"
Elevation is 7316 feet MSL.
 
View others Airports in Northern Areas

Operational data

Special qualification required
Current time UTC:
Current local time:
Weather at : - ( 0 km )
METAR: SBBG 220917Z AUTO 03016KT CAVOK 19/16 Q1012
View NOTAMs / SUP AIP / TFR affecting this airport [VIEW]
Communications frequencies: [VIEW]

Runways:

RWY identifierQFULength (ft)Width (ft)SurfaceLDA (ft)
14147°1199898ASP
32327°1199898ASP

Airport contact information

Address: Skardu Pakistan

Satellite view of OPSD